Time;durP1;ratioP1;P1;durP2;ratioP2;P2;SDS_P1;SDS_P2;PMS_P1;PMS_P2;Temp;Humidity;BMP_temperature;BMP_pressure;BME280_temperature;BME280_humidity;BME280_pressure;Samples;Min_cycle;Max_cycle;Signal;HPM_P1;HPM_P2
2022/07/04 00:01:49;;;;;;;12.40;11.90;;;;;;;16.51;100.00;102113.33;2009836;71;30923;-68
2022/07/04 00:07:33;;;;;;;13.27;12.67;;;;;;;16.34;100.00;102106.72;2018849;71;33370;-69
2022/07/04 00:13:19;;;;;;;12.90;12.40;;;;;;;16.44;100.00;102102.15;2004327;70;33282;-69
2022/07/04 00:19:03;;;;;;;12.20;11.70;;;;;;;16.52;100.00;102105.72;2012095;71;32801;-69
2022/07/04 00:24:48;;;;;;;12.60;12.10;;;;;;;16.41;100.00;102116.20;2004459;71;32880;-69
2022/07/04 00:30:32;;;;;;;12.90;12.40;;;;;;;16.53;100.00;102112.45;2006137;71;32825;-69
2022/07/04 00:36:17;;;;;;;12.47;11.97;;;;;;;16.57;100.00;102100.06;2008452;71;33316;-69
2022/07/04 00:42:02;;;;;;;13.23;12.60;;;;;;;16.43;100.00;102097.70;2002945;71;32816;-69
2022/07/04 00:47:47;;;;;;;13.30;12.80;;;;;;;16.29;100.00;102096.97;2000778;71;33394;-69
2022/07/04 00:53:31;;;;;;;14.13;13.53;;;;;;;16.18;100.00;102093.95;1997616;71;33322;-69
2022/07/04 00:59:18;;;;;;;15.07;14.37;;;;;;;16.06;100.00;102106.11;2015266;71;33365;-68
2022/07/04 01:05:03;;;;;;;17.07;16.27;;;;;;;15.79;100.00;102124.78;1997313;71;32862;-69
2022/07/04 01:10:48;;;;;;;16.57;15.87;;;;;;;15.53;100.00;102117.67;1995594;71;33412;-69
2022/07/04 01:16:38;;;;;;;16.20;15.23;;;;;;;15.61;100.00;102115.66;2015201;71;33437;-69
2022/07/04 01:22:23;;;;;;;16.47;15.63;;;;;;;15.70;100.00;102116.70;2000647;71;33407;-69
2022/07/04 01:28:07;;;;;;;16.17;15.37;;;;;;;15.79;100.00;102116.94;2010372;71;32983;-69
2022/07/04 01:33:53;;;;;;;16.57;15.80;;;;;;;15.72;100.00;102129.03;2010064;71;33454;-69
2022/07/04 01:39:38;;;;;;;16.53;15.83;;;;;;;15.60;100.00;102119.58;2005970;71;32920;-69
2022/07/04 01:45:22;;;;;;;17.80;17.10;;;;;;;15.52;100.00;102117.95;2005968;71;33397;-69
2022/07/04 01:51:06;;;;;;;18.73;17.93;;;;;;;15.29;100.00;102109.61;1991797;71;32933;-69
2022/07/04 01:56:53;;;;;;;19.23;18.23;;;;;;;15.30;100.00;102104.28;2015395;71;32997;-69
2022/07/04 02:02:38;;;;;;;20.60;19.70;;;;;;;15.28;100.00;102096.16;2001038;71;32894;-69
2022/07/04 02:09:14;;;;;;;22.47;21.47;;;;;;;14.89;100.00;102091.02;2004441;71;33382;-69
2022/07/04 02:14:11;;;;;;;24.10;22.90;;;;;;;14.94;100.00;102082.02;2002489;71;32844;-69
2022/07/04 02:19:56;;;;;;;23.43;22.23;;;;;;;14.96;100.00;102083.98;1999039;71;32827;-69
2022/07/04 02:25:40;;;;;;;25.00;23.70;;;;;;;14.95;100.00;102073.91;2013343;71;32888;-68
2022/07/04 02:31:25;;;;;;;27.03;25.63;;;;;;;14.74;100.00;102075.09;2015330;71;32915;-69
2022/07/04 02:37:11;;;;;;;27.73;26.33;;;;;;;14.55;100.00;102070.64;2005881;71;32893;-69
2022/07/04 02:42:56;;;;;;;28.80;27.20;;;;;;;14.64;100.00;102078.45;1977880;72;32930;-69
2022/07/04 02:48:40;;;;;;;29.30;27.80;;;;;;;14.49;100.00;102078.78;2001190;71;33281;-69
2022/07/04 02:54:25;;;;;;;30.33;28.73;;;;;;;14.27;100.00;102080.16;2017087;71;32928;-69
2022/07/04 03:00:12;;;;;;;31.77;30.07;;;;;;;13.96;100.00;102070.36;1997453;71;33399;-69
2022/07/04 03:05:56;;;;;;;32.83;31.13;;;;;;;13.82;100.00;102081.80;2013573;71;32874;-69
2022/07/04 03:11:41;;;;;;;33.63;31.73;;;;;;;13.80;100.00;102088.23;2008322;71;32819;-69
2022/07/04 03:17:26;;;;;;;33.87;31.97;;;;;;;13.98;100.00;102077.92;2005964;71;32913;-69
2022/07/04 03:23:10;;;;;;;34.40;32.40;;;;;;;13.91;100.00;102083.48;2011881;71;33331;-69
2022/07/04 03:29:00;;;;;;;35.17;33.17;;;;;;;13.80;100.00;102065.88;1998763;71;32807;-69
2022/07/04 03:34:45;;;;;;;34.57;32.57;;;;;;;13.88;100.00;102072.31;1995545;71;33308;-69
2022/07/04 03:40:32;;;;;;;35.03;33.07;;;;;;;14.16;100.00;102098.89;2001164;71;33219;-69
2022/07/04 03:46:17;;;;;;;36.23;34.30;;;;;;;13.95;100.00;102109.74;2006545;71;32740;-69
2022/07/04 03:52:01;;;;;;;34.67;32.67;;;;;;;14.11;100.00;102103.08;2000711;71;33399;-69
2022/07/04 03:57:46;;;;;;;36.97;34.87;;;;;;;14.10;100.00;102106.98;2009562;71;32806;-69
2022/07/04 04:09:34;;;;;;;46.07;43.67;;;;;;;13.62;100.00;102126.44;2015143;71;33371;-69
2022/07/04 04:15:21;;;;;;;47.20;44.43;;;;;;;13.49;100.00;102136.72;2009718;71;32848;-69
2022/07/04 04:21:07;;;;;;;49.33;46.73;;;;;;;13.47;100.00;102149.57;2006371;71;32973;-69
2022/07/04 04:26:52;;;;;;;48.20;45.47;;;;;;;13.62;100.00;102154.36;2015194;71;32834;-69
2022/07/04 04:32:36;;;;;;;45.07;42.50;;;;;;;13.96;100.00;102150.54;2006078;71;33310;-69
2022/07/04 04:38:23;;;;;;;45.13;42.63;;;;;;;14.09;100.00;102152.24;1998692;71;32961;-69
2022/07/04 04:44:08;;;;;;;45.30;42.80;;;;;;;14.19;100.00;102154.22;2009480;71;32886;-69
2022/07/04 04:49:54;;;;;;;44.83;42.33;;;;;;;14.21;100.00;102144.14;2015321;71;32851;-69
2022/07/04 04:55:39;;;;;;;45.40;42.90;;;;;;;14.08;100.00;102153.35;2006814;71;33292;-69
2022/07/04 05:01:24;;;;;;;43.53;41.10;;;;;;;14.33;100.00;102162.35;2011479;71;32840;-69
2022/07/04 05:07:09;;;;;;;43.60;41.20;;;;;;;14.37;100.00;102150.92;1998984;71;33331;-69
2022/07/04 05:12:55;;;;;;;42.23;39.97;;;;;;;14.50;100.00;102157.33;2005933;71;32912;-68
2022/07/04 05:18:42;;;;;;;43.13;40.83;;;;;;;14.46;100.00;102147.81;2015247;71;33319;-69
2022/07/04 05:24:27;;;;;;;42.23;40.03;;;;;;;14.44;100.00;102152.87;2009821;71;33355;-69
2022/07/04 05:30:13;;;;;;;41.70;39.30;;;;;;;14.62;100.00;102147.27;2013373;71;32905;-69
2022/07/04 05:35:58;;;;;;;39.00;36.80;;;;;;;14.59;100.00;102152.84;2011526;71;33384;-68
2022/07/04 05:41:45;;;;;;;40.00;37.60;;;;;;;14.81;100.00;102148.35;2009451;71;32913;-69
2022/07/04 05:47:29;;;;;;;40.83;38.63;;;;;;;14.93;100.00;102153.08;2006455;71;32807;-67
2022/07/04 05:53:14;;;;;;;40.03;37.87;;;;;;;14.89;100.00;102150.58;2015366;71;33328;-68
2022/07/04 05:58:58;;;;;;;38.60;36.60;;;;;;;15.00;100.00;102155.05;2010256;71;33391;-67
2022/07/04 06:04:43;;;;;;;37.90;35.90;;;;;;;15.09;100.00;102151.67;1991911;71;33365;-68
2022/07/04 06:10:28;;;;;;;37.20;35.20;;;;;;;15.31;100.00;102155.81;2013661;71;33384;-67
2022/07/04 06:16:13;;;;;;;36.23;34.33;;;;;;;15.38;100.00;102152.69;2017020;71;33371;-67
2022/07/04 06:21:57;;;;;;;39.13;36.90;;;;;;;15.42;100.00;102153.80;1995179;71;32831;-68
2022/07/04 06:27:43;;;;;;;34.80;32.90;;;;;;;15.38;100.00;102153.53;2016824;71;32981;-68
2022/07/04 06:35:44;;;;;;;33.83;32.03;;;;;;;15.34;100.00;102145.42;2015300;71;33442;-68
2022/07/04 06:39:21;;;;;;;33.00;31.20;;;;;;;15.59;100.00;102136.10;2014993;71;32944;-68
2022/07/04 06:45:07;;;;;;;31.90;30.20;;;;;;;15.68;100.00;102137.73;2016963;71;33331;-70
2022/07/04 06:47:40;;;;;;;29.93;28.43;;;;;;;15.69;100.00;102138.02;1970622;72;26675;-66
2022/07/04 06:53:25;;;;;;;29.03;27.53;;;;;;;15.89;100.00;102129.49;2017155;71;32865;-67
2022/07/04 06:59:10;;;;;;;28.13;26.63;;;;;;;15.99;100.00;102118.78;2008081;71;33293;-68
2022/07/04 07:04:57;;;;;;;28.20;26.73;;;;;;;16.15;100.00;102110.53;2004361;71;32814;-68
2022/07/04 07:10:45;;;;;;;26.00;24.70;;;;;;;16.25;100.00;102119.72;2016893;71;32877;-69
2022/07/04 07:16:31;;;;;;;25.90;24.50;;;;;;;16.42;100.00;102111.44;1997490;71;33346;-71
2022/07/04 07:22:17;;;;;;;26.07;24.57;;;;;;;16.56;100.00;102109.64;2006256;71;33313;-70
2022/07/04 07:28:04;;;;;;;24.73;23.43;;;;;;;16.77;100.00;102119.56;2015405;71;33340;-69
2022/07/04 07:33:48;;;;;;;24.10;22.80;;;;;;;16.99;100.00;102120.42;2010035;71;33480;-70
2022/07/04 07:39:35;;;;;;;22.23;21.03;;;;;;;17.25;100.00;102120.41;2006687;71;33299;-70
2022/07/04 07:45:20;;;;;;;20.40;19.37;;;;;;;17.84;100.00;102113.48;2017143;71;33448;-70
2022/07/04 07:51:04;;;;;;;17.93;17.13;;;;;;;18.36;100.00;102107.57;2006726;71;33343;-69
2022/07/04 07:56:49;;;;;;;16.40;15.50;;;;;;;18.94;100.00;102110.78;2002975;70;31346;-70
2022/07/04 08:08:35;;;;;;;16.00;15.00;;;;;;;19.56;100.00;102123.90;1995248;70;33419;-70
2022/07/04 08:14:20;;;;;;;12.23;11.60;;;;;;;20.31;100.00;102122.75;2013449;71;30897;-70
2022/07/04 08:20:05;;;;;;;11.43;10.80;;;;;;;20.59;100.00;102116.95;2011660;71;31405;-70
2022/07/04 08:25:50;;;;;;;10.40;9.87;;;;;;;20.89;100.00;102097.20;1991876;71;33291;-70
2022/07/04 08:31:34;;;;;;;10.00;9.60;;;;;;;20.95;100.00;102099.31;2009932;71;30842;-71
2022/07/04 08:37:19;;;;;;;9.83;9.40;;;;;;;21.03;100.00;102098.52;2000563;71;33331;-71
2022/07/04 08:43:05;;;;;;;9.77;9.27;;;;;;;21.00;100.00;102103.98;2016890;71;30934;-70
2022/07/04 08:48:53;;;;;;;9.80;9.40;;;;;;;20.96;100.00;102103.81;2000384;71;30902;-70
2022/07/04 09:00:45;;;;;;;10.10;9.70;;;;;;;21.08;100.00;102098.37;2005716;71;31096;-71
2022/07/04 09:06:31;;;;;;;10.63;9.93;;;;;;;21.13;100.00;102098.27;2001040;71;30868;-70
2022/07/04 09:12:15;;;;;;;9.90;9.40;;;;;;;21.24;100.00;102095.39;2006572;71;30843;-71
2022/07/04 09:18:00;;;;;;;9.33;8.97;;;;;;;21.44;100.00;102093.94;2015131;71;30896;-71
2022/07/04 09:23:46;;;;;;;9.40;8.90;;;;;;;21.45;100.00;102097.61;2017199;71;30902;-71
2022/07/04 09:29:32;;;;;;;9.53;9.13;;;;;;;21.40;100.00;102092.09;2006523;71;30900;-72
2022/07/04 09:35:20;;;;;;;9.83;9.33;;;;;;;21.45;100.00;102094.20;1997338;71;30792;-71
2022/07/04 09:41:29;;;;;;;10.20;9.70;;;;;;;21.28;100.00;102094.15;2017311;71;33407;-70
2022/07/04 09:47:24;;;;;;;10.20;9.63;;;;;;;21.23;100.00;102102.77;2010031;71;31399;-71
2022/07/04 09:53:18;;;;;;;9.70;9.07;;;;;;;21.24;100.00;102095.39;2015528;70;30872;-74
2022/07/04 09:59:06;;;;;;;10.10;9.60;;;;;;;21.16;100.00;102096.20;2017136;71;31019;-74
2022/07/04 10:04:51;;;;;;;10.23;9.80;;;;;;;21.09;100.00;102097.23;1991481;71;30897;-74
2022/07/04 10:10:49;;;;;;;10.63;10.07;;;;;;;21.57;100.00;102092.98;2017081;71;30989;-73
2022/07/04 10:16:38;;;;;;;10.53;10.03;;;;;;;21.68;100.00;102087.86;2009912;71;30920;-74
2022/07/04 10:22:24;;;;;;;10.40;9.90;;;;;;;21.63;100.00;102095.91;2008028;71;30939;-74
2022/07/04 10:28:08;;;;;;;10.37;9.87;;;;;;;21.57;100.00;102083.08;2011724;70;30870;-75
2022/07/04 10:33:55;;;;;;;9.67;9.27;;;;;;;21.63;100.00;102077.53;2006818;71;31425;-71
2022/07/04 10:39:41;;;;;;;9.70;9.30;;;;;;;21.88;100.00;102075.89;2004390;71;31359;-74
2022/07/04 10:45:38;;;;;;;9.37;8.87;;;;;;;22.25;100.00;102074.40;2015407;71;30923;-74
2022/07/04 10:51:41;;;;;;;8.40;8.10;;;;;;;22.11;100.00;102065.27;2001340;71;31450;-72
2022/07/04 10:57:29;;;;;;;8.67;8.37;;;;;;;21.63;100.00;102077.53;2000652;71;30863;-73
2022/07/04 11:03:22;;;;;;;8.80;8.30;;;;;;;22.02;100.00;102072.36;2006084;71;30958;-73
2022/07/04 11:09:18;;;;;;;9.57;9.03;;;;;;;21.99;100.00;102067.95;2017047;71;30888;-73
2022/07/04 11:15:08;;;;;;;10.58;9.98;;;;;;;22.09;100.00;102069.01;2006648;71;30889;-74
2022/07/04 11:20:53;;;;;;;10.20;9.70;;;;;;;22.24;100.00;102068.52;2017172;71;31391;-74
2022/07/04 11:26:37;;;;;;;9.60;9.13;;;;;;;22.22;100.00;102063.75;2000525;71;30930;-74
2022/07/04 11:32:22;;;;;;;10.97;10.40;;;;;;;22.35;100.00;102059.91;2017275;71;31394;-73
2022/07/04 11:38:07;;;;;;;14.50;13.70;;;;;;;22.32;100.00;102064.84;2011969;71;30994;-79
2022/07/04 11:50:19;;;;;;;12.33;11.05;;;;;;;22.32;100.00;102059.75;2013771;71;30910;-71
2022/07/04 11:56:06;;;;;;;10.93;10.38;;;;;;;22.36;100.00;102060.16;2015140;71;30860;-75
2022/07/04 12:01:55;;;;;;;10.35;9.85;;;;;;;22.24;100.00;102056.61;2015104;71;30901;-78
2022/07/04 12:07:41;;;;;;;11.03;10.43;;;;;;;22.12;100.00;102057.04;2011370;70;30906;-77
2022/07/04 12:13:26;;;;;;;10.38;9.80;;;;;;;22.22;100.00;102058.09;1995594;71;30941;-76
2022/07/04 12:19:11;;;;;;;10.32;9.93;;;;;;;22.16;100.00;102058.84;2009643;71;31266;-77
2022/07/04 12:24:58;;;;;;;10.17;9.77;;;;;;;22.24;100.00;102054.36;1995622;71;30907;-75
2022/07/04 12:30:51;;;;;;;10.75;10.28;;;;;;;22.27;100.00;102063.59;2000963;71;30807;-74
2022/07/04 12:36:48;;;;;;;10.43;9.85;;;;;;;22.30;100.00;102063.48;2002502;71;30882;-74
2022/07/04 12:42:44;;;;;;;10.50;10.00;;;;;;;22.35;100.00;102064.73;1965413;72;30918;-74
2022/07/04 12:48:30;;;;;;;10.50;10.00;;;;;;;22.22;100.00;102064.59;2011990;71;30782;-74
2022/07/04 12:54:26;;;;;;;10.90;10.30;;;;;;;22.24;100.00;102069.92;2009710;71;30862;-74
2022/07/04 13:00:18;;;;;;;10.90;10.40;;;;;;;22.86;100.00;102058.96;2010184;71;30852;-74
2022/07/04 13:06:02;;;;;;;11.12;10.40;;;;;;;22.73;100.00;102050.67;2013820;71;30861;-74
2022/07/04 13:17:48;;;;;;;11.57;10.90;;;;;;;22.66;100.00;102059.09;2011665;71;30873;-72
2022/07/04 13:23:32;;;;;;;10.80;10.30;;;;;;;22.67;100.00;102069.27;2001015;70;30962;-74
2022/07/04 13:29:16;;;;;;;10.93;10.28;;;;;;;22.62;100.00;102062.94;1997280;71;30812;-74
2022/07/04 13:35:00;;;;;;;10.28;9.78;;;;;;;22.43;100.00;102061.05;2002852;71;30825;-76
2022/07/04 13:40:45;;;;;;;11.57;10.68;;;;;;;22.32;100.00;102059.17;2008359;71;30947;-74
2022/07/04 13:46:34;;;;;;;11.38;10.75;;;;;;;22.30;100.00;102059.23;1995426;71;30920;-74
2022/07/04 13:52:16;;;;;;;10.70;10.20;;;;;;;22.31;100.00;102056.66;1992145;71;31520;-76
2022/07/04 13:58:02;;;;;;;10.50;10.00;;;;;;;22.40;100.00;102055.49;2016932;71;30886;-73
2022/07/04 14:03:46;;;;;;;11.35;10.65;;;;;;;22.48;100.00;102058.89;2012117;71;31369;-73
2022/07/04 14:09:32;;;;;;;11.00;10.50;;;;;;;22.51;100.00;102057.36;1997452;71;31292;-73
2022/07/04 14:15:16;;;;;;;11.30;10.60;;;;;;;22.56;100.00;102053.78;2011623;71;30924;-73
2022/07/04 14:21:00;;;;;;;10.93;10.43;;;;;;;22.94;100.00;102048.17;2002981;71;31372;-73
2022/07/04 14:26:45;;;;;;;9.83;9.33;;;;;;;22.83;100.00;102051.15;2015122;71;30917;-73
2022/07/04 14:32:29;;;;;;;10.43;9.93;;;;;;;22.62;100.00;102048.20;2003881;71;30871;-72
2022/07/04 14:38:13;;;;;;;10.38;9.85;;;;;;;22.38;100.00;102058.42;2013387;71;30965;-73
2022/07/04 14:43:57;;;;;;;10.63;9.88;;;;;;;22.49;100.00;102046.98;1995726;71;30862;-72
2022/07/04 14:49:42;;;;;;;9.98;9.40;;;;;;;22.85;100.00;102041.70;1995733;71;30892;-72
2022/07/04 14:55:26;;;;;;;11.40;10.30;;;;;;;22.87;100.00;102042.21;2009736;71;30915;-78
2022/07/04 15:01:10;;;;;;;11.15;10.40;;;;;;;22.95;100.00;102046.17;2017296;71;30971;-74
2022/07/04 15:06:55;;;;;;;11.50;10.90;;;;;;;22.91;100.00;102040.36;2013569;71;30914;-72
2022/07/04 15:12:41;;;;;;;11.63;10.95;;;;;;;22.93;100.00;102035.78;2017044;71;30875;-71
2022/07/04 15:15:53;;;;;;;11.20;10.60;;;;;;;22.94;100.00;102041.09;1979165;72;24161;-70
2022/07/04 15:27:39;;;;;;;11.68;10.98;;;;;;;23.00;100.00;102020.48;2004327;71;30974;-73
2022/07/04 15:33:30;;;;;;;11.53;10.93;;;;;;;22.96;100.00;102023.75;2009426;71;30894;-74
2022/07/04 15:39:18;;;;;;;10.93;10.45;;;;;;;22.99;100.00;102013.14;2001042;71;30908;-73
2022/07/04 15:45:02;;;;;;;11.10;10.40;;;;;;;22.88;100.00;102005.63;1998884;71;30867;-74
2022/07/04 15:50:48;;;;;;;11.15;10.43;;;;;;;23.02;100.00;102006.78;2011614;71;31466;-72
2022/07/04 15:56:33;;;;;;;10.48;9.98;;;;;;;22.84;100.00;101998.15;2001162;71;31415;-72
2022/07/04 16:02:18;;;;;;;11.03;10.53;;;;;;;22.75;100.00;102001.02;2006035;71;30906;-73
2022/07/04 16:07:54;;;;;;;11.05;10.32;;;;;;;22.73;100.00;102002.52;2005293;71;30625;-71
2022/07/04 16:13:38;;;;;;;10.78;10.18;;;;;;;22.59;100.00;102011.22;2014098;71;30856;-72
2022/07/04 16:19:25;;;;;;;10.35;9.75;;;;;;;22.47;100.00;102013.31;2008143;71;31423;-74
2022/07/04 16:25:11;;;;;;;10.85;10.15;;;;;;;22.53;100.00;102005.48;2015143;71;30916;-74
2022/07/04 16:30:57;;;;;;;10.45;9.95;;;;;;;22.80;100.00;102015.00;2002997;71;31372;-74
2022/07/04 16:36:41;;;;;;;11.37;10.67;;;;;;;22.96;100.00;102020.34;2010308;71;31308;-74
2022/07/04 16:42:26;;;;;;;11.70;11.00;;;;;;;22.59;100.00;102021.14;1980407;72;31616;-73
2022/07/04 16:48:10;;;;;;;11.22;10.32;;;;;;;22.43;100.00;102025.08;2006330;71;31536;-74
2022/07/04 16:53:55;;;;;;;11.88;11.18;;;;;;;22.48;100.00;102019.23;1995743;71;31391;-74
2022/07/04 16:59:39;;;;;;;11.12;10.53;;;;;;;22.76;100.00;102014.02;2006424;71;30923;-74
2022/07/04 17:05:24;;;;;;;11.85;11.15;;;;;;;22.58;100.00;102005.30;2009808;71;31030;-73
2022/07/04 17:11:08;;;;;;;11.50;10.80;;;;;;;22.87;100.00;102003.96;2004921;71;31404;-73
2022/07/04 17:16:55;;;;;;;10.82;10.25;;;;;;;22.90;100.00;102008.10;1995283;71;31417;-74
2022/07/04 17:22:39;;;;;;;10.60;10.20;;;;;;;22.62;100.00;102013.37;2011580;71;31002;-73
2022/07/04 17:28:24;;;;;;;13.18;12.40;;;;;;;22.46;100.00;102015.90;2004536;71;30943;-74
2022/07/04 17:34:08;;;;;;;10.90;10.40;;;;;;;22.25;100.00;102010.70;2013906;71;30860;-74
2022/07/04 17:39:52;;;;;;;10.50;9.90;;;;;;;22.32;100.00;102011.62;2005933;71;31008;-74
2022/07/04 17:45:37;;;;;;;11.00;10.35;;;;;;;22.25;100.00;102012.13;2012045;71;30933;-74
2022/07/04 17:51:21;;;;;;;10.63;10.13;;;;;;;22.19;100.00;102014.31;2004795;71;30811;-73
2022/07/04 17:57:08;;;;;;;9.85;9.35;;;;;;;22.20;100.00;102029.30;2002443;71;30960;-73
2022/07/04 18:02:52;;;;;;;10.08;9.68;;;;;;;22.20;100.00;102020.81;2001192;71;30933;-73
2022/07/04 18:08:36;;;;;;;9.83;9.43;;;;;;;22.08;100.00;102021.47;1999187;71;30872;-72
2022/07/04 18:14:24;;;;;;;9.93;9.37;;;;;;;22.03;100.00;102026.50;2015291;71;30873;-74
2022/07/04 18:20:11;;;;;;;9.50;9.03;;;;;;;22.02;100.00;102040.39;2016983;71;30895;-73
2022/07/04 18:25:55;;;;;;;9.73;9.33;;;;;;;21.87;100.00;102047.91;2013915;71;30793;-73
2022/07/04 18:31:44;;;;;;;10.20;9.70;;;;;;;21.66;100.00;102051.41;2004242;71;31044;-73
2022/07/04 18:37:30;;;;;;;10.00;9.50;;;;;;;21.46;100.00;102046.39;2003986;71;30856;-73
2022/07/04 18:43:27;;;;;;;10.00;9.60;;;;;;;21.37;100.00;102058.27;2002545;71;30903;-71
2022/07/04 18:49:12;;;;;;;9.80;9.40;;;;;;;21.21;100.00;102062.14;2017133;71;31363;-73
2022/07/04 18:54:56;;;;;;;9.97;9.57;;;;;;;21.14;100.00;102061.77;2002547;71;30907;-72
2022/07/04 19:00:41;;;;;;;9.77;9.37;;;;;;;21.06;100.00;102065.36;2016842;71;30866;-73
2022/07/04 19:06:26;;;;;;;9.47;9.00;;;;;;;21.02;100.00;102066.34;1995231;71;30950;-71
2022/07/04 19:12:11;;;;;;;9.23;8.93;;;;;;;20.90;100.00;102064.98;2009663;71;33351;-71
2022/07/04 19:17:57;;;;;;;8.93;8.63;;;;;;;20.83;100.00;102067.45;2017221;71;33365;-70
2022/07/04 19:23:41;;;;;;;8.60;8.10;;;;;;;20.81;100.00;102067.50;2014997;71;30901;-71
2022/07/04 19:29:26;;;;;;;8.00;7.70;;;;;;;20.80;100.00;102075.14;1995536;71;30883;-70
2022/07/04 19:35:12;;;;;;;8.90;8.60;;;;;;;20.68;100.00;102082.55;1995204;71;30917;-70
2022/07/04 19:40:58;;;;;;;9.03;8.63;;;;;;;20.50;100.00;102090.07;1996208;71;30941;-69
2022/07/04 19:46:42;;;;;;;8.97;8.53;;;;;;;20.40;100.00;102092.60;2015416;71;30922;-70
2022/07/04 19:52:32;;;;;;;8.70;8.40;;;;;;;20.26;100.00;102099.42;2000512;71;30828;-69
2022/07/04 19:58:19;;;;;;;8.90;8.60;;;;;;;20.05;100.00;102103.33;2011240;71;30931;-70
2022/07/04 20:04:03;;;;;;;9.90;9.50;;;;;;;19.86;100.00;102109.69;2015348;71;30955;-71
2022/07/04 20:09:48;;;;;;;9.63;9.33;;;;;;;19.79;100.00;102111.55;2001037;71;30873;-70
2022/07/04 20:15:33;;;;;;;10.07;9.60;;;;;;;19.54;100.00;102120.58;2015400;71;30913;-71
2022/07/04 20:21:18;;;;;;;10.07;9.60;;;;;;;19.39;100.00;102134.38;2002886;71;30856;-72
2022/07/04 20:27:03;;;;;;;11.37;10.57;;;;;;;19.17;100.00;102134.86;1997558;71;31421;-71
2022/07/04 20:32:49;;;;;;;11.57;10.80;;;;;;;18.85;100.00;102137.14;2016895;71;31450;-71
2022/07/04 20:38:34;;;;;;;11.30;10.70;;;;;;;19.01;100.00;102143.59;2017026;71;30903;-68
2022/07/04 20:44:19;;;;;;;13.00;12.10;;;;;;;18.74;100.00;102157.59;2012137;71;30962;-71
2022/07/04 20:50:06;;;;;;;12.50;11.70;;;;;;;18.58;100.00;102166.05;1995000;71;30874;-70
2022/07/04 20:55:51;;;;;;;11.87;11.27;;;;;;;18.35;100.00;102178.23;2004715;70;33304;-70
2022/07/04 21:01:37;;;;;;;10.77;10.27;;;;;;;18.46;100.00;102185.36;2011970;71;30814;-72
2022/07/04 21:07:21;;;;;;;12.27;11.40;;;;;;;18.11;100.00;102196.02;2017168;71;31420;-70
2022/07/04 21:13:07;;;;;;;12.03;11.43;;;;;;;17.91;100.00;102202.50;2018854;71;31405;-70
2022/07/04 21:18:52;;;;;;;11.30;10.63;;;;;;;17.88;100.00;102210.14;2017077;71;31470;-69
2022/07/04 21:24:37;;;;;;;11.70;11.00;;;;;;;18.03;100.00;102208.51;2004722;71;32801;-71
2022/07/04 21:30:22;;;;;;;11.73;11.03;;;;;;;17.98;100.00;102217.85;2001129;71;31347;-69
2022/07/04 21:36:08;;;;;;;12.00;11.40;;;;;;;17.70;100.00;102210.36;2009790;71;30918;-70
2022/07/04 21:41:52;;;;;;;13.20;12.40;;;;;;;17.74;100.00;102226.89;2004665;71;30956;-69
2022/07/04 21:47:38;;;;;;;13.43;12.63;;;;;;;17.78;100.00;102220.94;2018720;71;30887;-70
2022/07/04 21:53:27;;;;;;;11.70;11.00;;;;;;;17.41;100.00;102234.84;1911910;73;30989;-70
2022/07/04 21:59:11;;;;;;;11.63;11.13;;;;;;;17.08;100.00;102232.36;1991927;71;30831;-70
2022/07/04 22:04:56;;;;;;;11.30;10.80;;;;;;;17.50;100.00;102236.68;2006318;71;31428;-70
2022/07/04 22:10:42;;;;;;;11.30;10.80;;;;;;;17.50;100.00;102245.70;2003966;71;32857;-70
2022/07/04 22:16:26;;;;;;;11.33;10.80;;;;;;;17.43;100.00;102246.61;2006004;71;32861;-70
2022/07/04 22:22:10;;;;;;;12.00;11.40;;;;;;;17.37;100.00;102252.02;2005875;71;30925;-70
2022/07/04 22:27:55;;;;;;;12.33;11.83;;;;;;;17.23;100.00;102251.31;1995523;71;32921;-70
2022/07/04 22:33:41;;;;;;;12.80;12.30;;;;;;;17.08;100.00;102250.04;2015167;71;32948;-70
2022/07/04 22:39:27;;;;;;;12.33;11.63;;;;;;;17.02;100.00;102255.45;2015120;71;30926;-70
2022/07/04 22:45:12;;;;;;;12.30;11.80;;;;;;;16.95;100.00;102254.09;2001187;71;32818;-71
2022/07/04 22:51:12;;;;;;;12.40;11.80;;;;;;;16.96;100.00;102262.79;2005923;71;32871;-69
2022/07/04 22:56:56;;;;;;;12.47;11.93;;;;;;;16.90;100.00;102270.41;2017273;71;33369;-70
2022/07/04 23:02:45;;;;;;;13.17;12.57;;;;;;;16.86;100.00;102267.91;2009582;71;32821;-70
2022/07/04 23:08:30;;;;;;;12.63;12.10;;;;;;;16.76;100.00;102277.84;2015316;71;32875;-70
2022/07/04 23:14:18;;;;;;;13.60;13.00;;;;;;;16.64;100.00;102278.21;2004562;71;32953;-71
2022/07/04 23:20:02;;;;;;;13.07;12.53;;;;;;;16.59;100.00;102288.06;2013366;71;31471;-70
2022/07/04 23:25:46;;;;;;;14.20;13.60;;;;;;;16.45;100.00;102295.41;2013418;71;33370;-71
2022/07/04 23:31:30;;;;;;;14.17;13.57;;;;;;;16.44;100.00;102293.72;2001198;71;33341;-70
2022/07/04 23:37:15;;;;;;;14.83;14.17;;;;;;;16.32;100.00;102298.28;2018790;71;32958;-70
2022/07/04 23:43:00;;;;;;;15.60;14.90;;;;;;;16.29;100.00;102303.08;2009957;71;32890;-70
2022/07/04 23:48:44;;;;;;;16.50;15.80;;;;;;;16.20;100.00;102302.55;2009627;71;32916;-70
2022/07/04 23:54:29;;;;;;;16.40;15.70;;;;;;;16.04;100.00;102305.16;2018940;71;33425;-70
